createdAt,value
2022-09-12T00:02:07.323Z,88.12
2022-09-12T00:04:37.025Z,85.38
2022-09-12T00:07:06.325Z,88.44
2022-09-12T00:09:35.275Z,90.68
2022-09-12T00:12:04.841Z,90.27
2022-09-12T00:14:34.423Z,87.52
2022-09-12T00:17:15.781Z,87.64
2022-09-12T00:19:46.225Z,86.34
2022-09-12T00:22:15.855Z,88.67
2022-09-12T00:24:45.347Z,91.20
2022-09-12T00:27:14.124Z,88.64
2022-09-12T00:29:46.090Z,85.33
2022-09-12T00:32:18.375Z,85.15
2022-09-12T00:34:48.976Z,89.57
2022-09-12T00:37:17.902Z,86.55
2022-09-12T00:39:46.831Z,87.82
2022-09-12T00:42:15.897Z,90.71
2022-09-12T00:44:54.985Z,91.11
2022-09-12T00:47:30.641Z,88.52
2022-09-12T00:50:07.034Z,93.27
2022-09-12T00:52:41.522Z,86.75
2022-09-12T00:55:14.817Z,85.26
2022-09-12T00:57:51.107Z,89.33
2022-09-12T01:00:23.297Z,85.23
2022-09-12T01:02:56.551Z,86.54
2022-09-12T01:05:29.011Z,92.81
2022-09-12T01:07:59.246Z,88.90
2022-09-12T01:10:28.412Z,89.80
2022-09-12T01:12:57.339Z,88.76
2022-09-12T01:15:26.244Z,89.93
2022-09-12T01:18:10.745Z,85.19
2022-09-12T01:21:16.650Z,87.69
2022-09-12T01:24:34.659Z,87.31
2022-09-12T01:27:31.623Z,90.92
2022-09-12T01:30:56.406Z,84.70
2022-09-12T01:33:42.996Z,87.84
2022-09-12T01:36:38.294Z,87.41
2022-09-12T01:39:15.758Z,88.82
2022-09-12T01:41:56.191Z,83.68
2022-09-12T01:44:37.255Z,88.49
2022-09-12T01:47:14.616Z,87.44
2022-09-12T01:49:53.144Z,86.02
2022-09-12T01:52:27.179Z,89.00
2022-09-12T01:55:05.434Z,87.13
2022-09-12T01:57:45.752Z,85.88
2022-09-12T02:00:15.719Z,89.72
2022-09-12T02:02:53.118Z,89.59
2022-09-12T02:05:29.166Z,84.57
2022-09-12T02:08:05.800Z,81.66
2022-09-12T02:10:42.708Z,87.12
2022-09-12T02:13:17.060Z,87.77
2022-09-12T02:15:51.257Z,89.00
2022-09-12T02:18:23.120Z,84.17
2022-09-12T02:20:54.845Z,87.93
2022-09-12T02:23:29.101Z,85.81
2022-09-12T02:26:03.783Z,86.26
2022-09-12T02:28:38.851Z,84.61
2022-09-12T02:31:18.580Z,87.48
2022-09-12T02:34:02.081Z,87.82
2022-09-12T02:36:40.770Z,88.22
2022-09-12T02:39:09.953Z,87.56
2022-09-12T02:41:39.294Z,85.75
2022-09-12T02:44:08.462Z,84.83
2022-09-12T02:46:44.282Z,83.79
2022-09-12T02:49:14.732Z,87.53
2022-09-12T02:51:44.186Z,85.67
2022-09-12T02:54:13.866Z,82.23
2022-09-12T02:56:45.541Z,90.33
2022-09-12T02:59:21.239Z,87.21
2022-09-12T03:02:16.391Z,86.50
2022-09-12T03:05:10.010Z,86.14
2022-09-12T03:08:02.310Z,86.94
2022-09-12T03:10:43.868Z,87.02
2022-09-12T03:13:23.276Z,89.14
2022-09-12T03:16:04.893Z,84.45
2022-09-12T03:18:52.947Z,89.09
2022-09-12T03:21:30.584Z,87.54
2022-09-12T03:24:13.550Z,88.88
2022-09-12T03:26:48.647Z,89.11
2022-09-12T03:29:19.553Z,90.65
2022-09-12T03:31:53.683Z,89.04
2022-09-12T03:34:25.431Z,89.07
2022-09-12T03:36:57.125Z,92.18
2022-09-12T03:39:28.042Z,87.16
2022-09-12T03:41:59.475Z,89.22
2022-09-12T03:44:28.795Z,88.52
2022-09-12T03:46:57.891Z,86.69
2022-09-12T03:49:27.046Z,85.45
2022-09-12T03:51:57.284Z,89.13
2022-09-12T03:54:27.040Z,91.38
2022-09-12T03:56:56.172Z,85.21
2022-09-12T03:59:25.146Z,89.66
2022-09-12T04:01:54.316Z,87.50
2022-09-12T04:04:25.377Z,83.10
2022-09-12T04:06:54.379Z,88.59
2022-09-12T04:09:27.512Z,85.67
2022-09-12T04:11:56.452Z,85.71
2022-09-12T04:14:25.776Z,87.06
2022-09-12T04:16:55.176Z,84.21
2022-09-12T04:19:26.869Z,87.54
2022-09-12T04:21:55.773Z,88.85
2022-09-12T04:24:27.986Z,90.61
2022-09-12T04:26:56.959Z,89.50
2022-09-12T04:29:29.613Z,88.96
2022-09-12T04:31:59.115Z,89.70
2022-09-12T04:34:31.337Z,89.19
2022-09-12T04:37:00.312Z,89.02
2022-09-12T04:39:30.872Z,87.03
2022-09-12T04:42:00.017Z,88.44
2022-09-12T04:44:28.882Z,88.26
2022-09-12T04:46:57.992Z,89.10
2022-09-12T04:49:26.983Z,87.46
2022-09-12T04:51:56.295Z,86.64
2022-09-12T04:54:25.146Z,88.72
2022-09-12T04:56:56.121Z,92.05
2022-09-12T04:59:25.347Z,90.71
2022-09-12T05:01:54.460Z,88.97
2022-09-12T05:04:23.537Z,87.01
2022-09-12T05:06:52.822Z,85.94
2022-09-12T05:09:21.924Z,91.26
2022-09-12T05:12:06.163Z,88.30
2022-09-12T05:14:37.202Z,89.54
2022-09-12T05:17:07.144Z,83.02
2022-09-12T05:19:36.941Z,87.43
2022-09-12T05:22:06.816Z,87.01
2022-09-12T05:24:35.702Z,86.13
2022-09-12T05:27:04.882Z,85.53
2022-09-12T05:29:34.237Z,86.96
2022-09-12T05:32:04.927Z,84.01
2022-09-12T05:34:41.814Z,84.11
2022-09-12T05:37:12.129Z,95.91
2022-09-12T05:39:41.512Z,92.26
2022-09-12T05:42:10.518Z,89.68
2022-09-12T05:44:39.054Z,89.54
2022-09-12T05:47:12.997Z,90.22
2022-09-12T05:49:41.886Z,88.05
2022-09-12T05:52:11.233Z,88.19
2022-09-12T05:54:41.931Z,89.88
2022-09-12T05:57:11.535Z,89.49
2022-09-12T05:59:43.102Z,86.93
2022-09-12T06:02:14.850Z,88.85
2022-09-12T06:04:44.019Z,87.47
2022-09-12T06:07:13.429Z,85.64
2022-09-12T06:09:45.533Z,86.27
2022-09-12T06:12:16.427Z,86.32
2022-09-12T06:14:48.315Z,86.88
2022-09-12T06:17:22.243Z,85.94
2022-09-12T06:19:51.701Z,86.85
2022-09-12T06:22:25.086Z,84.35
2022-09-12T06:24:58.700Z,84.72
2022-09-12T06:27:28.199Z,83.77
2022-09-12T06:29:58.241Z,82.68
2022-09-12T06:32:32.507Z,81.77
2022-09-12T06:35:01.779Z,86.99
2022-09-12T06:37:34.241Z,85.71
2022-09-12T06:40:03.519Z,82.02
2022-09-12T06:42:34.263Z,83.71
2022-09-12T06:45:03.523Z,83.89
2022-09-12T06:47:34.111Z,83.40
2022-09-12T06:50:03.812Z,83.46
2022-09-12T06:52:33.238Z,80.56
2022-09-12T06:55:02.484Z,85.81
2022-09-12T06:58:02.644Z,84.41
2022-09-12T07:00:34.772Z,82.76
2022-09-12T07:03:05.179Z,82.43
2022-09-12T07:05:35.826Z,81.57
2022-09-12T07:08:04.960Z,79.27
2022-09-12T07:10:35.065Z,82.83
2022-09-12T07:13:06.059Z,81.53
2022-09-12T07:15:37.486Z,75.90
2022-09-12T07:18:08.431Z,79.47
2022-09-12T07:20:38.470Z,78.71
2022-09-12T07:23:09.119Z,80.56
2022-09-12T07:25:37.991Z,81.28
2022-09-12T07:28:07.848Z,78.81
2022-09-12T07:30:40.391Z,79.56
2022-09-12T07:33:12.214Z,81.37
2022-09-12T07:35:41.869Z,77.15
2022-09-12T07:38:11.206Z,81.05
2022-09-12T07:40:40.988Z,75.74
2022-09-12T07:43:10.961Z,79.83
2022-09-12T07:45:42.561Z,82.64
2022-09-12T07:48:14.510Z,82.34
2022-09-12T07:50:45.220Z,83.16
2022-09-12T07:53:16.060Z,81.70
2022-09-12T07:55:45.783Z,81.99
2022-09-12T07:58:17.212Z,78.90
2022-09-12T08:00:46.233Z,81.68
2022-09-12T08:03:16.532Z,81.66
2022-09-12T08:05:45.463Z,78.20
2022-09-12T08:08:15.860Z,79.83
2022-09-12T08:10:44.968Z,79.32
2022-09-12T08:13:13.941Z,76.11
2022-09-12T08:15:43.309Z,80.51
2022-09-12T08:18:12.332Z,75.19
2022-09-12T08:20:43.449Z,77.36
2022-09-12T08:23:12.611Z,78.78
2022-09-12T08:25:41.720Z,80.23
2022-09-12T08:28:10.665Z,76.80
2022-09-12T08:30:39.747Z,79.52
2022-09-12T08:33:09.280Z,75.91
2022-09-12T08:35:38.555Z,77.02
2022-09-12T08:38:09.383Z,74.52
2022-09-12T08:40:52.276Z,73.87
2022-09-12T08:43:39.303Z,71.44
2022-09-12T08:46:15.351Z,71.42
2022-09-12T08:48:47.715Z,73.18
2022-09-12T08:51:21.129Z,69.05
2022-09-12T08:53:54.752Z,72.04
2022-09-12T08:56:28.450Z,71.78
2022-09-12T08:59:00.719Z,74.86
2022-09-12T09:01:35.087Z,72.05
2022-09-12T09:04:28.956Z,67.15
2022-09-12T09:07:16.033Z,68.84
2022-09-12T09:10:02.104Z,67.79
2022-09-12T09:12:42.017Z,73.57
2022-09-12T09:15:36.905Z,71.10
2022-09-12T09:18:13.905Z,69.02
2022-09-12T09:20:51.308Z,63.79
2022-09-12T09:23:27.352Z,64.61
2022-09-12T09:26:02.944Z,66.81
2022-09-12T09:28:40.011Z,64.49
2022-09-12T09:31:16.509Z,69.30
2022-09-12T09:33:48.261Z,65.71
2022-09-12T09:36:25.216Z,64.51
2022-09-12T09:39:03.114Z,66.22
2022-09-12T09:41:47.063Z,61.54
2022-09-12T09:44:16.167Z,66.45
2022-09-12T09:46:45.545Z,65.69
2022-09-12T09:49:17.794Z,64.84
2022-09-12T09:51:47.525Z,69.96
2022-09-12T09:54:26.152Z,65.39
2022-09-12T09:56:57.442Z,62.42
2022-09-12T09:59:30.845Z,63.59
2022-09-12T10:02:04.102Z,63.76
2022-09-12T10:04:41.057Z,61.86
2022-09-12T10:07:21.827Z,59.76
2022-09-12T10:10:16.367Z,59.23
2022-09-12T10:12:47.684Z,65.87
2022-09-12T10:15:21.465Z,69.96
2022-09-12T10:17:52.972Z,69.20
2022-09-12T10:20:35.074Z,65.77
2022-09-12T10:23:23.264Z,67.17
2022-09-12T10:26:07.281Z,69.28
2022-09-12T10:28:45.278Z,64.02
2022-09-12T10:31:21.490Z,64.68
2022-09-12T10:33:53.998Z,66.76
2022-09-12T10:36:23.702Z,67.79
2022-09-12T10:38:55.858Z,61.95
2022-09-12T10:41:25.298Z,64.96
2022-09-12T10:44:10.190Z,61.30
2022-09-12T10:46:40.075Z,57.51
2022-09-12T10:49:28.323Z,55.36
2022-09-12T10:52:00.710Z,55.05
2022-09-12T10:54:30.183Z,54.51
2022-09-12T10:57:36.149Z,57.22
2022-09-12T11:00:15.901Z,56.04
2022-09-12T11:03:00.366Z,56.59
2022-09-12T11:05:56.601Z,53.29
2022-09-12T11:08:57.067Z,54.77
2022-09-12T11:11:45.908Z,57.91
2022-09-12T11:14:33.922Z,58.90
2022-09-12T11:17:25.084Z,49.95
2022-09-12T11:20:18.656Z,46.71
2022-09-12T11:23:47.012Z,47.59
2022-09-12T11:26:32.800Z,51.49
2022-09-12T11:29:14.371Z,46.96
2022-09-12T11:32:21.247Z,46.05
2022-09-12T11:35:03.731Z,41.69
2022-09-12T11:37:51.838Z,44.69
2022-09-12T11:40:31.495Z,41.29
2022-09-12T11:43:08.258Z,40.96
2022-09-12T11:45:45.681Z,43.18
2022-09-12T11:48:28.868Z,46.13
2022-09-12T11:51:01.980Z,42.49
2022-09-12T11:53:41.319Z,39.31
2022-09-12T11:56:19.291Z,41.39
2022-09-12T11:59:00.923Z,42.80
2022-09-12T12:01:48.195Z,43.30
2022-09-12T12:04:34.064Z,42.62
2022-09-12T12:07:14.479Z,40.91
2022-09-12T12:10:10.297Z,41.68
2022-09-12T12:13:05.658Z,42.47
2022-09-12T12:15:53.034Z,40.93
2022-09-12T12:18:26.561Z,41.53
2022-09-12T12:20:57.809Z,38.63
2022-09-12T12:23:35.578Z,40.13
2022-09-12T12:26:06.051Z,42.21
2022-09-12T12:28:59.892Z,41.69
2022-09-12T12:31:32.240Z,42.72
2022-09-12T12:34:28.591Z,38.95
2022-09-12T12:37:05.504Z,41.15
2022-09-12T12:40:06.387Z,41.42
2022-09-12T12:43:08.389Z,40.47
2022-09-12T12:46:04.927Z,42.43
2022-09-12T12:48:58.349Z,39.88
2022-09-12T12:51:51.389Z,41.77
2022-09-12T12:54:48.871Z,42.82
2022-09-12T12:57:30.165Z,38.15
2022-09-12T13:00:09.011Z,39.99
2022-09-12T13:02:43.086Z,36.39
2022-09-12T13:05:22.169Z,34.52
2022-09-12T13:07:59.537Z,34.13
2022-09-12T13:10:31.721Z,34.83
2022-09-12T13:13:06.535Z,35.35
2022-09-12T13:15:53.051Z,32.61
2022-09-12T13:18:29.239Z,34.14
2022-09-12T13:21:09.578Z,33.69
2022-09-12T13:23:39.591Z,33.53
2022-09-12T13:26:14.347Z,37.55
2022-09-12T13:28:45.165Z,37.30
2022-09-12T13:31:23.203Z,35.18
2022-09-12T13:33:56.606Z,32.17
2022-09-12T13:37:14.750Z,32.70
2022-09-12T13:39:50.704Z,35.29
2022-09-12T13:42:41.996Z,34.87
2022-09-12T13:45:20.817Z,33.44
2022-09-12T13:47:58.474Z,33.47
2022-09-12T13:50:32.444Z,33.40
2022-09-12T13:53:07.568Z,34.44
2022-09-12T13:55:39.192Z,32.99
2022-09-12T13:58:18.227Z,33.51
2022-09-12T14:01:02.182Z,33.95
2022-09-12T14:03:54.733Z,35.40
2022-09-12T14:06:28.791Z,34.46
2022-09-12T14:09:01.630Z,35.47
2022-09-12T14:11:34.016Z,33.77
2022-09-12T14:14:17.261Z,34.33
2022-09-12T14:16:48.032Z,34.00
2022-09-12T14:19:20.739Z,35.45
2022-09-12T14:21:50.984Z,35.08
2022-09-12T14:24:24.478Z,32.64
2022-09-12T14:26:58.928Z,34.97
2022-09-12T14:32:37.889Z,35.99
2022-09-12T14:35:24.051Z,36.34
2022-09-12T14:37:55.128Z,34.46
2022-09-12T14:40:27.145Z,36.85
2022-09-12T14:43:00.636Z,37.15
2022-09-12T14:45:32.949Z,38.79
2022-09-12T14:48:06.015Z,37.66
2022-09-12T14:50:37.470Z,37.84
2022-09-12T14:53:12.569Z,38.74
2022-09-12T14:55:49.971Z,37.29
2022-09-12T14:58:28.770Z,37.96
2022-09-12T15:01:00.161Z,38.21
2022-09-12T15:03:33.940Z,38.51
2022-09-12T15:06:04.076Z,39.63
2022-09-12T15:08:41.673Z,40.57
2022-09-12T15:11:10.956Z,38.70
2022-09-12T15:13:42.505Z,39.97
2022-09-12T15:16:13.036Z,42.40
2022-09-12T15:18:43.515Z,39.89
2022-09-12T15:21:18.741Z,41.55
2022-09-12T15:23:50.137Z,42.60
2022-09-12T15:26:21.884Z,43.31
2022-09-12T15:28:51.414Z,44.79
2022-09-12T15:31:26.110Z,43.01
2022-09-12T15:33:58.827Z,44.65
2022-09-12T15:36:29.653Z,44.48
2022-09-12T15:39:01.518Z,44.32
2022-09-12T15:41:35.845Z,43.46
2022-09-12T15:44:08.133Z,45.21
2022-09-12T15:46:37.547Z,43.38
2022-09-12T15:49:08.310Z,45.19
2022-09-12T15:52:00.209Z,45.52
2022-09-12T15:57:52.128Z,47.41
2022-09-12T16:00:21.565Z,45.71
2022-09-12T16:02:53.214Z,45.50
2022-09-12T16:05:26.532Z,44.08
2022-09-12T16:07:56.923Z,44.05
2022-09-12T16:10:29.218Z,43.56
2022-09-12T16:13:01.066Z,43.98
2022-09-12T16:15:30.563Z,45.75
2022-09-12T16:17:59.939Z,45.76
2022-09-12T16:20:30.994Z,46.98
2022-09-12T16:23:01.400Z,47.78
2022-09-12T16:25:31.980Z,48.30
2022-09-12T16:28:01.733Z,49.20
2022-09-12T16:30:30.627Z,50.62
2022-09-12T16:32:59.951Z,48.86
2022-09-12T16:35:35.525Z,47.20
2022-09-12T16:38:04.393Z,48.84
2022-09-12T16:40:33.446Z,50.41
2022-09-12T16:43:02.710Z,50.68
2022-09-12T16:45:31.958Z,51.46
2022-09-12T16:48:01.275Z,52.62
2022-09-12T16:50:31.741Z,59.94
2022-09-12T16:53:00.823Z,60.00
2022-09-12T16:55:32.541Z,54.16
2022-09-12T16:58:02.690Z,53.34
2022-09-12T17:00:33.826Z,54.16
2022-09-12T17:03:03.047Z,55.32
2022-09-12T17:05:34.043Z,54.97
2022-09-12T17:08:04.013Z,55.95
2022-09-12T17:10:33.775Z,55.38
2022-09-12T17:13:04.448Z,55.28
2022-09-12T17:15:33.809Z,55.76
2022-09-12T17:18:03.269Z,55.72
2022-09-12T17:20:37.603Z,58.92
2022-09-12T17:23:09.748Z,57.28
2022-09-12T17:25:41.602Z,59.69
2022-09-12T17:28:10.574Z,60.47
2022-09-12T17:30:39.722Z,59.41
2022-09-12T17:33:09.379Z,60.92
2022-09-12T17:35:42.664Z,61.56
2022-09-12T17:38:15.504Z,62.10
2022-09-12T17:40:59.150Z,63.62
2022-09-12T17:43:29.442Z,63.48
2022-09-12T17:45:59.100Z,63.00
2022-09-12T17:48:28.840Z,61.92
2022-09-12T17:50:59.945Z,62.84
2022-09-12T17:53:30.361Z,64.21
2022-09-12T17:56:06.935Z,62.78
2022-09-12T17:58:38.046Z,63.33
2022-09-12T18:01:29.456Z,63.80
2022-09-12T18:04:01.689Z,64.43
2022-09-12T18:06:36.151Z,62.65
2022-09-12T18:09:09.266Z,63.87
2022-09-12T18:11:39.187Z,64.58
2022-09-12T18:14:13.876Z,66.38
2022-09-12T18:16:43.537Z,65.42
2022-09-12T18:19:13.124Z,66.78
2022-09-12T18:21:44.622Z,66.66
2022-09-12T18:24:16.706Z,65.78
2022-09-12T18:26:46.490Z,67.12
2022-09-12T18:29:20.132Z,67.14
2022-09-12T18:31:52.536Z,67.16
2022-09-12T18:34:23.136Z,68.48
2022-09-12T18:36:56.794Z,69.26
2022-09-12T18:39:27.983Z,68.24
2022-09-12T18:41:58.258Z,69.65
2022-09-12T18:44:28.285Z,68.43
2022-09-12T18:47:00.690Z,67.49
2022-09-12T18:49:33.163Z,70.17
2022-09-12T18:52:10.022Z,70.17
2022-09-12T18:54:39.887Z,70.67
2022-09-12T18:57:10.004Z,70.12
2022-09-12T18:59:39.851Z,70.75
2022-09-12T19:02:08.972Z,69.74
2022-09-12T19:04:39.538Z,70.83
2022-09-12T19:07:10.829Z,69.64
2022-09-12T19:09:42.609Z,70.23
2022-09-12T19:12:11.879Z,70.76
2022-09-12T19:14:52.091Z,71.25
2022-09-12T19:17:21.342Z,72.27
2022-09-12T19:19:50.124Z,71.73
2022-09-12T19:22:20.533Z,69.74
2022-09-12T19:24:49.610Z,68.82
2022-09-12T19:27:18.431Z,69.62
2022-09-12T19:29:47.258Z,70.11
2022-09-12T19:32:16.592Z,72.24
2022-09-12T19:34:45.512Z,70.81
2022-09-12T19:37:16.870Z,72.72
2022-09-12T19:39:48.850Z,71.67
2022-09-12T19:42:18.381Z,72.54
2022-09-12T19:44:53.853Z,73.35
2022-09-12T19:47:26.127Z,75.80
2022-09-12T19:49:55.899Z,75.40
2022-09-12T19:52:24.992Z,74.56
2022-09-12T19:54:55.284Z,73.13
2022-09-12T19:57:24.745Z,74.30
2022-09-12T19:59:53.626Z,74.97
2022-09-12T20:02:22.546Z,74.52
2022-09-12T20:04:52.531Z,76.43
2022-09-12T20:07:21.991Z,76.98
2022-09-12T20:09:51.613Z,76.75
2022-09-12T20:12:22.761Z,76.46
2022-09-12T20:14:51.923Z,77.75
2022-09-12T20:17:21.309Z,77.20
2022-09-12T20:19:50.184Z,76.50
2022-09-12T20:22:19.253Z,78.32
2022-09-12T20:24:48.310Z,78.69
2022-09-12T20:27:17.431Z,79.58
2022-09-12T20:29:48.336Z,77.61
2022-09-12T20:32:18.415Z,77.55
2022-09-12T20:34:47.461Z,78.36
2022-09-12T20:37:16.724Z,80.16
2022-09-12T20:39:50.211Z,78.79
2022-09-12T20:42:20.108Z,79.50
2022-09-12T20:44:51.338Z,79.79
2022-09-12T20:47:20.276Z,78.81
2022-09-12T20:49:49.814Z,80.20
2022-09-12T20:52:18.867Z,80.03
2022-09-12T20:54:48.224Z,80.70
2022-09-12T20:57:17.164Z,81.14
2022-09-12T20:59:45.984Z,80.98
2022-09-12T21:02:17.643Z,80.30
2022-09-12T21:04:46.637Z,81.06
2022-09-12T21:07:15.649Z,81.26
2022-09-12T21:09:44.756Z,82.52
2022-09-12T21:12:13.565Z,82.61
2022-09-12T21:14:43.012Z,83.34
2022-09-12T21:17:11.977Z,81.47
2022-09-12T21:19:42.234Z,81.73
2022-09-12T21:22:11.539Z,81.12
2022-09-12T21:24:40.740Z,82.07
2022-09-12T21:27:09.586Z,81.57
2022-09-12T21:29:38.628Z,82.46
2022-09-12T21:32:12.146Z,82.69
2022-09-12T21:34:44.415Z,82.33
2022-09-12T21:37:13.331Z,84.78
2022-09-12T21:39:42.212Z,84.55
2022-09-12T21:42:11.346Z,84.66
2022-09-12T21:44:40.284Z,85.03
2022-09-12T21:47:09.341Z,84.33
2022-09-12T21:49:38.341Z,84.86
2022-09-12T21:52:08.749Z,85.62
2022-09-12T21:54:37.633Z,86.73
2022-09-12T21:57:08.961Z,85.59
2022-09-12T21:59:37.705Z,85.68
2022-09-12T22:02:10.319Z,85.87
2022-09-12T22:04:39.250Z,87.59
2022-09-12T22:07:10.804Z,86.05
2022-09-12T22:09:39.641Z,87.04
2022-09-12T22:12:08.953Z,86.65
2022-09-12T22:14:38.934Z,86.69
2022-09-12T22:17:08.468Z,86.32
2022-09-12T22:19:39.012Z,87.58
2022-09-12T22:22:27.131Z,85.50
2022-09-12T22:24:56.102Z,86.95
2022-09-12T22:27:25.573Z,84.42
2022-09-12T22:29:54.477Z,82.23
2022-09-12T22:32:23.357Z,84.82
2022-09-12T22:34:52.357Z,84.55
2022-09-12T22:37:22.887Z,85.60
2022-09-12T22:39:51.796Z,85.37
2022-09-12T22:42:22.359Z,87.04
2022-09-12T22:44:51.838Z,86.26
2022-09-12T22:47:21.103Z,84.02
2022-09-12T22:49:50.038Z,85.72
2022-09-12T22:52:18.916Z,86.75
2022-09-12T22:54:49.568Z,86.38
2022-09-12T22:57:18.620Z,86.24
2022-09-12T22:59:47.596Z,86.40
2022-09-12T23:02:16.412Z,87.72
2022-09-12T23:04:46.693Z,86.87
2022-09-12T23:07:15.919Z,86.79
2022-09-12T23:09:46.179Z,86.45
2022-09-12T23:12:17.228Z,86.30
2022-09-12T23:14:46.772Z,85.96
2022-09-12T23:17:15.663Z,87.70
2022-09-12T23:19:44.776Z,86.63
2022-09-12T23:22:14.053Z,88.23
2022-09-12T23:24:43.096Z,88.61
2022-09-12T23:27:12.122Z,88.83
2022-09-12T23:29:42.341Z,88.37
2022-09-12T23:32:11.659Z,89.33
2022-09-12T23:34:40.473Z,89.65
2022-09-12T23:37:09.446Z,89.83
2022-09-12T23:39:38.520Z,86.78
2022-09-12T23:42:07.881Z,88.60
2022-09-12T23:44:36.726Z,86.94
2022-09-12T23:47:07.343Z,88.64
2022-09-12T23:49:36.138Z,89.23
2022-09-12T23:52:05.411Z,89.50
2022-09-12T23:54:34.343Z,93.31
2022-09-12T23:57:03.306Z,87.91
2022-09-12T23:59:32.293Z,90.29
